Time;durP1;ratioP1;P1;durP2;ratioP2;P2;SDS_P1;SDS_P2;PMS_P1;PMS_P2;Temp;Humidity;BMP_temperature;BMP_pressure;BME280_temperature;BME280_humidity;BME280_pressure;Samples;Min_cycle;Max_cycle;Signal;HPM_P1;HPM_P2
2023/03/16 00:00:22;;;;;;;5.85;3.33;;;5.20;71.20;;;;;;5118525;27;20220;-70
2023/03/16 00:02:51;;;;;;;5.10;2.50;;;5.20;71.20;;;;;;5134526;27;20196;-71
2023/03/16 00:05:18;;;;;;;8.27;2.97;;;5.20;71.00;;;;;;5136075;27;20223;-70
2023/03/16 00:07:51;;;;;;;4.90;2.60;;;5.20;70.90;;;;;;5134839;27;20219;-70
2023/03/16 00:10:26;;;;;;;6.07;3.00;;;5.10;71.00;;;;;;5135916;27;20260;-70
2023/03/16 00:12:54;;;;;;;5.43;2.40;;;5.10;71.30;;;;;;5135106;27;20258;-71
2023/03/16 00:15:22;;;;;;;6.40;2.90;;;5.10;71.50;;;;;;5135942;27;20184;-70
2023/03/16 00:17:50;;;;;;;6.63;2.70;;;5.10;73.00;;;;;;5134164;27;20219;-73
2023/03/16 00:20:19;;;;;;;5.50;2.75;;;5.00;72.20;;;;;;5135770;27;20195;-71
2023/03/16 00:22:52;;;;;;;6.38;2.80;;;5.00;72.10;;;;;;5135464;27;20188;-71
2023/03/16 00:25:24;;;;;;;5.20;2.15;;;5.00;72.60;;;;;;5135967;27;20271;-71
2023/03/16 00:27:56;;;;;;;3.53;2.47;;;4.90;73.20;;;;;;5134625;27;20271;-69
2023/03/16 00:30:23;;;;;;;6.05;2.60;;;4.90;73.80;;;;;;5135433;27;20702;-70
2023/03/16 00:32:52;;;;;;;7.03;3.30;;;4.80;74.00;;;;;;5134698;27;20218;-71
2023/03/16 00:35:20;;;;;;;6.97;3.05;;;4.90;73.80;;;;;;5135705;27;20220;-71
2023/03/16 00:37:47;;;;;;;5.30;3.28;;;4.90;73.90;;;;;;5135133;27;20187;-71
2023/03/16 00:40:15;;;;;;;7.60;3.47;;;4.80;74.10;;;;;;5135320;27;20219;-68
2023/03/16 00:42:43;;;;;;;7.35;4.13;;;4.80;74.30;;;;;;5135186;27;20183;-70
2023/03/16 00:45:11;;;;;;;8.93;3.83;;;4.80;74.30;;;;;;5135544;27;20535;-70
2023/03/16 00:47:39;;;;;;;8.30;4.18;;;4.80;74.40;;;;;;5133703;27;20726;-71
2023/03/16 00:50:13;;;;;;;6.13;3.47;;;4.80;74.60;;;;;;5135404;27;20200;-70
2023/03/16 00:52:46;;;;;;;8.50;3.08;;;4.80;74.50;;;;;;5134712;27;20190;-73
2023/03/16 00:55:18;;;;;;;10.05;2.80;;;4.70;73.70;;;;;;5135161;27;20259;-71
2023/03/16 00:57:45;;;;;;;3.83;2.70;;;4.60;73.30;;;;;;5133844;27;20574;-71
2023/03/16 01:00:25;;;;;;;4.72;2.70;;;4.60;73.20;;;;;;5134744;27;20246;-70
2023/03/16 01:02:52;;;;;;;4.45;2.95;;;4.60;73.60;;;;;;5133839;27;20195;-70
2023/03/16 01:05:21;;;;;;;7.07;3.05;;;4.50;73.60;;;;;;5134699;27;20550;-73
2023/03/16 01:07:49;;;;;;;4.25;2.67;;;4.50;73.60;;;;;;5133909;27;20188;-71
2023/03/16 01:10:16;;;;;;;7.57;4.45;;;4.40;73.90;;;;;;5134881;27;20223;-71
2023/03/16 01:12:45;;;;;;;3.78;2.60;;;4.40;74.00;;;;;;5133781;27;20184;-71
2023/03/16 01:15:17;;;;;;;4.68;2.35;;;4.30;73.90;;;;;;5134586;27;20215;-72
2023/03/16 01:17:45;;;;;;;4.50;2.45;;;4.20;74.40;;;;;;5134047;27;20535;-70
2023/03/16 01:20:14;;;;;;;4.32;1.88;;;4.20;75.00;;;;;;5134388;27;20188;-70
2023/03/16 01:22:43;;;;;;;5.63;3.03;;;4.20;75.20;;;;;;5132745;27;20682;-68
2023/03/16 01:25:12;;;;;;;4.68;2.60;;;4.10;75.10;;;;;;5134297;27;20709;-71
2023/03/16 01:27:42;;;;;;;6.75;3.88;;;4.10;75.40;;;;;;5133339;27;20216;-70
2023/03/16 01:30:11;;;;;;;4.32;3.03;;;4.00;76.20;;;;;;5134120;27;20684;-70
2023/03/16 01:32:42;;;;;;;4.35;3.00;;;3.90;76.50;;;;;;5133315;27;20187;-70
2023/03/16 01:35:09;;;;;;;6.25;3.40;;;3.90;76.80;;;;;;5134444;27;20192;-68
2023/03/16 01:37:37;;;;;;;6.78;3.00;;;3.90;76.90;;;;;;5133473;27;20179;-69
2023/03/16 01:40:07;;;;;;;5.72;2.75;;;3.80;77.30;;;;;;5134047;27;20198;-69
2023/03/16 01:42:52;;;;;;;4.72;2.85;;;3.80;76.80;;;;;;5133083;27;20805;-69
2023/03/16 01:45:56;;;;;;;4.03;2.45;;;3.70;75.80;;;;;;5134026;27;20215;-69
2023/03/16 01:48:28;;;;;;;5.80;2.42;;;3.60;75.30;;;;;;5132539;27;20219;-69
2023/03/16 01:50:57;;;;;;;4.00;2.70;;;3.60;75.80;;;;;;5134264;27;20187;-69
2023/03/16 01:53:26;;;;;;;4.57;3.05;;;3.50;76.40;;;;;;5133568;27;20183;-69
2023/03/16 01:55:55;;;;;;;7.53;3.30;;;3.50;76.70;;;;;;5133777;27;20710;-75
2023/03/16 01:58:23;;;;;;;3.72;2.70;;;3.40;77.60;;;;;;5131127;27;20179;-70
2023/03/16 02:00:56;;;;;;;7.10;3.03;;;3.40;78.70;;;;;;5133515;27;20222;-69
2023/03/16 02:03:26;;;;;;;7.50;3.35;;;3.40;79.10;;;;;;5132781;27;20265;-69
2023/03/16 02:05:59;;;;;;;4.50;2.80;;;3.40;80.00;;;;;;5133847;27;20187;-69
2023/03/16 02:08:27;;;;;;;3.60;2.45;;;3.40;79.80;;;;;;5132966;27;20237;-74
2023/03/16 02:10:57;;;;;;;7.25;2.78;;;3.40;79.10;;;;;;5133714;27;20194;-69
2023/03/16 02:13:28;;;;;;;6.22;3.33;;;3.40;79.20;;;;;;5132477;27;20189;-70
2023/03/16 02:16:00;;;;;;;6.63;3.20;;;3.40;79.70;;;;;;5132952;27;20199;-70
2023/03/16 02:18:27;;;;;;;4.40;3.53;;;3.40;80.50;;;;;;5133287;27;20550;-69
2023/03/16 02:21:04;;;;;;;4.45;2.78;;;3.40;81.10;;;;;;5133122;27;20226;-69
2023/03/16 02:23:32;;;;;;;3.65;2.25;;;3.40;82.20;;;;;;5132995;27;20549;-69
2023/03/16 02:26:08;;;;;;;6.10;3.20;;;3.30;81.40;;;;;;5132733;27;20538;-69
2023/03/16 02:28:46;;;;;;;6.22;3.15;;;3.30;81.60;;;;;;5132160;27;20185;-70
2023/03/16 02:31:21;;;;;;;6.63;2.40;;;3.30;82.00;;;;;;5132604;27;20236;-69
2023/03/16 02:33:50;;;;;;;6.40;2.65;;;3.30;81.60;;;;;;5129994;27;20233;-70
2023/03/16 02:36:26;;;;;;;9.63;3.70;;;3.30;81.50;;;;;;5132159;27;20532;-70
2023/03/16 02:38:56;;;;;;;4.57;3.08;;;3.20;82.00;;;;;;5133515;27;20236;-69
2023/03/16 02:41:23;;;;;;;5.82;2.83;;;3.10;82.20;;;;;;5132073;27;20211;-69
2023/03/16 02:43:58;;;;;;;3.70;2.30;;;3.10;82.50;;;;;;5133013;27;20598;-69
2023/03/16 02:46:29;;;;;;;5.00;2.80;;;3.10;82.70;;;;;;5132328;28;20178;-69
2023/03/16 02:49:04;;;;;;;4.57;2.65;;;3.00;82.50;;;;;;5133190;28;20194;-69
2023/03/16 02:51:32;;;;;;;6.10;2.40;;;3.00;82.80;;;;;;5131624;28;20195;-69
2023/03/16 02:53:59;;;;;;;5.20;3.03;;;2.90;82.90;;;;;;5131995;28;20223;-69
2023/03/16 02:56:27;;;;;;;6.65;3.65;;;2.90;83.20;;;;;;5132279;28;20215;-69
2023/03/16 02:58:56;;;;;;;7.68;3.63;;;2.90;84.30;;;;;;5132188;28;20218;-69
2023/03/16 03:01:30;;;;;;;5.28;2.70;;;2.90;83.70;;;;;;5131977;28;20225;-69
2023/03/16 03:03:58;;;;;;;8.27;3.30;;;2.80;83.70;;;;;;5132698;28;20564;-69
2023/03/16 03:06:29;;;;;;;8.55;3.80;;;2.80;83.50;;;;;;5131807;28;20186;-70
2023/03/16 03:08:56;;;;;;;5.25;2.80;;;2.80;83.10;;;;;;5133191;28;20195;-69
2023/03/16 03:11:23;;;;;;;4.70;3.40;;;2.80;83.40;;;;;;5131345;28;20215;-69
2023/03/16 03:13:52;;;;;;;7.07;2.72;;;2.70;83.80;;;;;;5132592;28;20281;-69
2023/03/16 03:16:20;;;;;;;4.45;2.95;;;2.70;83.60;;;;;;5132291;28;20269;-70
2023/03/16 03:18:51;;;;;;;3.58;2.63;;;;;;;;;;5133064;28;20187;-69
2023/03/16 03:21:19;;;;;;;5.55;3.50;;;2.60;83.00;;;;;;5131852;28;20184;-69
2023/03/16 03:23:46;;;;;;;3.80;3.33;;;2.60;82.80;;;;;;5131056;28;20188;-70
2023/03/16 03:26:18;;;;;;;4.30;2.60;;;2.60;82.70;;;;;;5131751;28;20212;-75
2023/03/16 03:28:48;;;;;;;5.03;3.05;;;2.60;83.00;;;;;;5132897;28;20227;-70
2023/03/16 03:31:16;;;;;;;6.30;3.88;;;2.50;83.50;;;;;;5131620;28;20255;-69
2023/03/16 03:33:43;;;;;;;8.38;3.60;;;2.40;84.70;;;;;;5131696;28;20226;-69
2023/03/16 03:36:13;;;;;;;7.05;3.65;;;2.40;85.10;;;;;;5132889;28;20277;-69
2023/03/16 03:38:41;;;;;;;6.38;3.42;;;2.30;85.10;;;;;;5131649;28;20193;-69
2023/03/16 03:41:08;;;;;;;7.97;5.07;;;2.30;84.60;;;;;;5132607;28;20187;-70
2023/03/16 03:43:38;;;;;;;7.75;4.15;;;2.30;83.80;;;;;;5132098;28;20199;-69
2023/03/16 03:46:09;;;;;;;7.45;4.15;;;2.30;84.60;;;;;;5134102;27;20229;-73
2023/03/16 03:48:37;;;;;;;5.70;3.25;;;2.20;85.00;;;;;;5135249;27;20186;-69
2023/03/16 03:51:06;;;;;;;6.15;3.80;;;2.30;85.40;;;;;;5136606;27;20573;-69
2023/03/16 03:53:40;;;;;;;3.83;2.55;;;2.20;85.00;;;;;;5135582;27;20197;-69
2023/03/16 03:56:11;;;;;;;6.03;3.38;;;2.20;85.00;;;;;;5136288;27;20204;-69
2023/03/16 03:58:39;;;;;;;3.88;2.75;;;2.20;85.10;;;;;;5135252;27;20261;-69
2023/03/16 04:01:11;;;;;;;4.60;3.75;;;2.20;84.90;;;;;;5135821;27;20689;-69
2023/03/16 04:03:38;;;;;;;7.47;3.70;;;2.10;84.80;;;;;;5135508;27;20557;-69
2023/03/16 04:06:07;;;;;;;8.32;4.38;;;2.10;84.90;;;;;;5136028;27;20230;-72
2023/03/16 04:08:34;;;;;;;5.28;3.33;;;2.10;84.20;;;;;;5135337;27;20199;-69
2023/03/16 04:11:03;;;;;;;6.75;4.18;;;2.00;83.60;;;;;;5136106;27;20220;-69
2023/03/16 04:13:30;;;;;;;5.25;3.50;;;1.90;83.70;;;;;;5134828;27;20186;-69
2023/03/16 04:15:58;;;;;;;6.07;3.75;;;1.90;84.80;;;;;;5135737;27;20251;-69
2023/03/16 04:18:25;;;;;;;6.43;3.92;;;1.80;85.20;;;;;;5134773;27;20666;-70
2023/03/16 04:20:53;;;;;;;7.63;3.83;;;1.80;86.00;;;;;;5135952;27;20198;-69
2023/03/16 04:23:20;;;;;;;5.72;4.20;;;1.80;86.10;;;;;;5134585;27;20598;-69
2023/03/16 04:25:48;;;;;;;7.63;3.50;;;1.90;86.60;;;;;;5135654;27;20272;-69
2023/03/16 04:28:17;;;;;;;5.32;4.28;;;1.90;86.70;;;;;;5135590;27;20519;-69
2023/03/16 04:30:44;;;;;;;8.40;4.60;;;2.00;86.90;;;;;;5135639;27;20238;-69
2023/03/16 04:33:11;;;;;;;8.95;4.75;;;2.00;87.00;;;;;;5134883;27;20255;-69
2023/03/16 04:35:38;;;;;;;9.35;3.38;;;1.90;87.10;;;;;;5135443;27;20602;-69
2023/03/16 04:38:06;;;;;;;6.72;3.83;;;1.90;86.90;;;;;;5135275;27;20186;-69
2023/03/16 04:40:34;;;;;;;11.70;4.10;;;1.90;85.60;;;;;;5134874;27;20247;-69
2023/03/16 04:43:01;;;;;;;11.70;6.25;;;1.90;84.40;;;;;;5134756;27;20194;-69
2023/03/16 04:45:31;;;;;;;13.05;5.30;;;1.80;83.70;;;;;;5134104;27;20214;-69
2023/03/16 04:47:59;;;;;;;9.02;5.18;;;1.70;83.40;;;;;;5133781;27;20526;-69
2023/03/16 04:50:26;;;;;;;8.68;5.32;;;1.70;83.70;;;;;;5135203;27;20660;-69
2023/03/16 04:52:55;;;;;;;9.93;6.88;;;1.60;84.20;;;;;;5134155;27;20265;-69
2023/03/16 04:55:23;;;;;;;20.00;8.15;;;1.60;85.40;;;;;;5135078;27;20285;-69
2023/03/16 04:57:51;;;;;;;14.18;7.50;;;1.60;85.70;;;;;;5132994;27;20541;-69
2023/03/16 05:00:24;;;;;;;10.32;6.43;;;1.60;85.70;;;;;;5134866;27;20319;-70
2023/03/16 05:02:52;;;;;;;9.32;6.22;;;1.60;84.70;;;;;;5134260;27;20186;-69
2023/03/16 05:05:21;;;;;;;9.27;5.60;;;1.50;83.90;;;;;;5134836;27;20217;-69
2023/03/16 05:07:48;;;;;;;17.77;11.80;;;1.50;83.70;;;;;;5134023;27;20190;-69
2023/03/16 05:10:18;;;;;;;15.02;8.90;;;1.40;83.80;;;;;;5134974;27;20194;-69
2023/03/16 05:12:53;;;;;;;17.05;9.20;;;1.40;84.70;;;;;;5134095;27;20271;-70
2023/03/16 05:15:21;;;;;;;14.43;8.75;;;1.40;85.50;;;;;;5134783;27;20217;-69
2023/03/16 05:17:52;;;;;;;19.17;7.93;;;1.40;85.80;;;;;;5133082;27;20586;-69
2023/03/16 05:20:20;;;;;;;16.77;9.75;;;1.40;85.80;;;;;;5134805;27;20201;-70
2023/03/16 05:22:48;;;;;;;16.40;8.20;;;1.40;85.40;;;;;;5133835;27;20724;-69
2023/03/16 05:25:16;;;;;;;10.18;7.85;;;1.50;85.30;;;;;;5134664;27;20584;-69
2023/03/16 05:27:44;;;;;;;13.43;8.38;;;1.40;84.90;;;;;;5133223;27;20542;-69
2023/03/16 05:30:15;;;;;;;10.10;7.65;;;1.40;85.50;;;;;;5134399;27;20194;-69
2023/03/16 05:32:47;;;;;;;14.70;8.35;;;1.40;85.50;;;;;;5133195;27;20182;-69
2023/03/16 05:35:16;;;;;;;13.32;7.85;;;1.40;85.30;;;;;;5134512;27;20214;-69
2023/03/16 05:37:43;;;;;;;14.45;8.52;;;1.40;85.10;;;;;;5134045;27;20191;-70
2023/03/16 05:40:15;;;;;;;11.15;7.07;;;1.40;84.90;;;;;;5134528;27;20259;-69
2023/03/16 05:42:44;;;;;;;12.30;6.95;;;1.40;85.40;;;;;;5133946;27;20243;-69
2023/03/16 05:45:12;;;;;;;13.25;9.10;;;1.50;85.90;;;;;;5123975;27;20209;-69
2023/03/16 05:47:40;;;;;;;10.25;7.15;;;1.50;85.50;;;;;;5122328;27;20189;-70
2023/03/16 05:50:10;;;;;;;12.52;8.73;;;1.50;85.40;;;;;;5122815;27;20232;-69
2023/03/16 05:52:39;;;;;;;12.05;8.15;;;1.60;85.40;;;;;;5112673;27;20195;-69
2023/03/16 05:55:10;;;;;;;11.32;7.68;;;1.60;85.40;;;;;;5112418;27;20194;-72
2023/03/16 05:57:40;;;;;;;9.77;5.40;;;1.70;85.20;;;;;;5112975;27;20209;-69
2023/03/16 06:00:13;;;;;;;13.93;4.53;;;1.80;85.20;;;;;;5112616;27;20199;-69
2023/03/16 06:02:40;;;;;;;8.55;6.53;;;1.80;85.30;;;;;;5113040;27;20196;-70
2023/03/16 06:05:11;;;;;;;9.07;5.72;;;1.90;85.00;;;;;;5112675;27;20564;-69
2023/03/16 06:07:40;;;;;;;8.32;6.75;;;1.90;85.30;;;;;;5115224;27;20230;-69
2023/03/16 06:10:08;;;;;;;15.07;8.05;;;2.00;85.50;;;;;;5112966;27;20195;-71
2023/03/16 06:12:35;;;;;;;15.63;9.40;;;2.00;83.70;;;;;;5130861;27;20201;-69
2023/03/16 06:15:06;;;;;;;11.30;7.93;;;2.10;82.90;;;;;;5130723;27;20185;-69
2023/03/16 06:17:33;;;;;;;10.68;6.53;;;2.10;82.90;;;;;;5130694;27;20606;-69
2023/03/16 06:20:00;;;;;;;7.90;4.30;;;2.20;83.30;;;;;;5130160;27;20194;-70
2023/03/16 06:22:29;;;;;;;6.80;4.95;;;2.30;83.50;;;;;;5130744;27;20247;-69
2023/03/16 06:24:57;;;;;;;10.55;4.80;;;2.40;83.10;;;;;;5129798;27;20323;-71
2023/03/16 06:27:25;;;;;;;7.20;4.45;;;2.50;82.60;;;;;;5126722;27;20271;-71
2023/03/16 06:29:53;;;;;;;7.93;5.45;;;2.50;82.80;;;;;;5116230;27;20538;-70
2023/03/16 06:32:24;;;;;;;6.80;5.00;;;2.50;83.00;;;;;;5112426;28;20370;-69
2023/03/16 06:34:51;;;;;;;8.13;4.90;;;2.60;82.90;;;;;;5115821;27;20222;-70
2023/03/16 06:37:18;;;;;;;12.10;5.00;;;2.70;83.10;;;;;;5130187;27;20498;-69
2023/03/16 06:39:47;;;;;;;10.40;5.55;;;2.80;82.60;;;;;;5130482;27;20188;-69
2023/03/16 06:42:16;;;;;;;8.05;6.70;;;2.90;82.00;;;;;;5130636;27;20202;-70
2023/03/16 06:44:44;;;;;;;10.07;5.75;;;3.00;81.60;;;;;;5129976;27;20191;-72
2023/03/16 06:47:11;;;;;;;9.15;6.45;;;3.00;81.10;;;;;;5129177;28;20210;-70
2023/03/16 06:49:39;;;;;;;12.50;6.18;;;3.00;80.80;;;;;;5129197;28;20571;-82
2023/03/16 06:52:06;;;;;;;9.18;5.70;;;3.00;80.80;;;;;;5117494;28;20672;-70
2023/03/16 06:54:34;;;;;;;12.90;6.82;;;3.20;81.00;;;;;;5128689;28;20530;-73
2023/03/16 06:57:01;;;;;;;11.15;6.85;;;3.40;81.30;;;;;;5129566;28;20546;-70
2023/03/16 06:59:30;;;;;;;12.43;5.65;;;3.70;81.30;;;;;;5118349;28;20259;-70
2023/03/16 07:01:57;;;;;;;9.82;5.35;;;4.00;80.50;;;;;;5118231;28;20234;-70
2023/03/16 07:04:27;;;;;;;9.23;5.72;;;4.30;80.00;;;;;;5118386;28;20193;-70
2023/03/16 07:06:54;;;;;;;11.55;6.32;;;4.80;79.90;;;;;;5121419;28;20225;-70
2023/03/16 07:09:21;;;;;;;8.77;5.30;;;5.30;77.80;;;;;;5110989;28;20195;-71
2023/03/16 07:11:49;;;;;;;13.23;5.93;;;5.70;75.60;;;;;;5121197;28;20215;-70
2023/03/16 07:14:16;;;;;;;11.48;5.90;;;6.20;73.40;;;;;;5123514;28;20212;-72
2023/03/16 07:16:45;;;;;;;7.43;5.28;;;7.10;69.50;;;;;;5115950;28;20214;-71
2023/03/16 07:19:12;;;;;;;8.85;6.00;;;9.00;62.20;;;;;;5114051;28;20189;-71
2023/03/16 07:21:39;;;;;;;7.20;4.90;;;11.50;55.80;;;;;;5119513;27;20691;-74
2023/03/16 07:24:08;;;;;;;8.55;5.28;;;14.30;47.90;;;;;;5128827;27;20206;-71
2023/03/16 07:26:51;;;;;;;6.53;5.00;;;16.40;40.50;;;;;;5117221;27;20235;-74
2023/03/16 07:29:19;;;;;;;6.10;5.17;;;18.60;35.80;;;;;;5130567;27;20548;-69
2023/03/16 07:31:47;;;;;;;6.70;4.37;;;20.50;31.20;;;;;;5134228;27;20450;-72
2023/03/16 07:34:15;;;;;;;9.57;5.30;;;22.30;27.70;;;;;;5123694;27;20426;-70
2023/03/16 07:36:42;;;;;;;7.50;4.63;;;23.90;25.80;;;;;;5133579;27;20456;-70
2023/03/16 07:39:12;;;;;;;5.67;4.57;;;25.20;23.80;;;;;;5132772;27;20811;-70
2023/03/16 07:41:40;;;;;;;8.60;4.97;;;26.40;21.70;;;;;;5133743;27;20440;-70
2023/03/16 07:44:07;;;;;;;6.20;4.70;;;27.20;20.50;;;;;;5135209;27;20798;-76
2023/03/16 07:46:34;;;;;;;6.20;4.80;;;27.80;19.50;;;;;;5134388;27;20516;-70
2023/03/16 07:49:02;;;;;;;8.63;5.77;;;28.40;18.60;;;;;;5136825;27;20479;-70
2023/03/16 07:51:30;;;;;;;6.53;5.80;;;28.50;18.20;;;;;;5136033;27;20449;-70
2023/03/16 07:53:57;;;;;;;7.47;5.37;;;28.80;18.80;;;;;;5136980;27;20429;-73
2023/03/16 07:56:23;;;;;;;9.93;5.13;;;29.70;17.10;;;;;;5137219;27;20516;-71
2023/03/16 07:58:50;;;;;;;6.23;4.80;;;30.30;16.80;;;;;;5136960;27;20516;-70
2023/03/16 08:01:17;;;;;;;6.70;4.37;;;31.20;16.50;;;;;;5136591;27;20500;-71
2023/03/16 08:03:44;;;;;;;7.37;5.20;;;32.00;15.30;;;;;;5136876;27;20967;-71
2023/03/16 08:06:12;;;;;;;7.10;4.70;;;32.90;14.80;;;;;;5136747;27;20511;-71
2023/03/16 08:08:39;;;;;;;7.40;4.53;;;33.70;14.10;;;;;;5136369;27;20912;-71
2023/03/16 08:11:06;;;;;;;9.03;4.10;;;34.30;13.80;;;;;;5136539;27;20434;-71
2023/03/16 08:13:34;;;;;;;7.43;5.57;;;34.90;13.20;;;;;;5136758;27;20535;-71
2023/03/16 08:16:01;;;;;;;5.53;3.77;;;35.40;13.10;;;;;;5136359;27;20576;-71
2023/03/16 08:18:28;;;;;;;7.90;4.17;;;36.10;12.60;;;;;;5136330;27;20429;-71
2023/03/16 08:20:55;;;;;;;4.70;3.73;;;36.90;12.00;;;;;;5136654;27;20793;-72
2023/03/16 08:23:25;;;;;;;6.30;4.10;;;37.40;11.40;;;;;;5136541;27;20500;-71
2023/03/16 08:25:52;;;;;;;3.73;3.30;;;37.90;11.50;;;;;;5136550;27;20862;-72
2023/03/16 08:28:20;;;;;;;3.57;3.20;;;38.60;11.00;;;;;;5136812;27;20826;-71
2023/03/16 08:30:49;;;;;;;5.97;2.93;;;39.00;10.40;;;;;;5136448;27;20912;-71
2023/03/16 08:33:18;;;;;;;4.20;3.20;;;39.20;9.60;;;;;;5136469;27;20430;-72
2023/03/16 08:35:46;;;;;;;5.90;3.20;;;39.40;9.00;;;;;;5136595;27;20813;-71
2023/03/16 08:38:14;;;;;;;3.53;2.63;;;39.50;9.20;;;;;;5136265;27;20429;-71
2023/03/16 08:40:46;;;;;;;3.40;2.60;;;39.90;8.90;;;;;;5136170;27;20491;-72
2023/03/16 08:43:13;;;;;;;5.83;3.07;;;40.30;8.30;;;;;;5136410;27;20452;-71
2023/03/16 08:45:46;;;;;;;3.17;2.63;;;40.60;7.90;;;;;;5136238;27;20532;-71
2023/03/16 08:48:13;;;;;;;3.50;2.50;;;41.00;8.20;;;;;;5136440;27;20525;-71
2023/03/16 08:50:42;;;;;;;3.80;2.60;;;41.30;8.10;;;;;;5136050;27;20472;-73
2023/03/16 08:53:09;;;;;;;3.27;2.27;;;41.50;8.40;;;;;;5135955;27;20445;-71
2023/03/16 08:55:36;;;;;;;4.97;3.03;;;41.50;8.10;;;;;;5135842;27;20430;-74
2023/03/16 08:58:08;;;;;;;2.93;2.60;;;41.70;8.10;;;;;;5136001;27;20793;-72
2023/03/16 09:00:35;;;;;;;3.90;2.70;;;42.10;8.00;;;;;;5135263;27;20963;-71
2023/03/16 09:03:02;;;;;;;3.33;2.33;;;42.50;7.90;;;;;;5135764;27;20437;-71
2023/03/16 09:05:30;;;;;;;3.43;2.77;;;42.70;7.30;;;;;;5135423;27;21010;-72
2023/03/16 09:07:57;;;;;;;6.60;2.80;;;42.80;7.70;;;;;;5135700;27;20524;-71
2023/03/16 09:10:26;;;;;;;3.77;2.40;;;43.20;7.50;;;;;;5135347;27;20533;-72
2023/03/16 09:12:53;;;;;;;3.93;2.83;;;43.50;7.10;;;;;;5135617;27;20486;-72
2023/03/16 09:15:22;;;;;;;4.70;2.30;;;43.90;6.80;;;;;;5135430;27;21045;-72
2023/03/16 09:17:49;;;;;;;4.33;2.23;;;44.20;6.70;;;;;;5135487;27;20473;-72
2023/03/16 09:20:17;;;;;;;3.40;2.23;;;44.20;6.60;;;;;;5135497;27;20854;-72
2023/03/16 09:22:45;;;;;;;4.50;2.40;;;44.10;6.60;;;;;;5135181;27;20522;-71
2023/03/16 09:25:13;;;;;;;3.67;2.67;;;44.20;6.60;;;;;;5135364;27;20438;-72
2023/03/16 09:27:40;;;;;;;2.90;1.90;;;44.40;6.30;;;;;;5134999;27;20495;-72
2023/03/16 09:30:09;;;;;;;4.27;1.93;;;44.70;5.90;;;;;;5134879;27;20532;-72
2023/03/16 09:32:38;;;;;;;5.73;2.50;;;45.00;6.50;;;;;;5135229;27;20465;-72
2023/03/16 09:35:06;;;;;;;2.70;2.00;;;45.40;5.40;;;;;;5134871;27;20433;-72
2023/03/16 09:37:33;;;;;;;3.33;2.00;;;45.80;5.60;;;;;;5134673;27;20862;-72
2023/03/16 09:40:00;;;;;;;3.90;1.97;;;46.00;5.70;;;;;;5134834;27;20477;-72
2023/03/16 09:42:35;;;;;;;4.90;2.70;;;46.00;5.50;;;;;;5135003;27;20488;-72
2023/03/16 09:45:10;;;;;;;3.20;2.00;;;46.20;5.40;;;;;;5134609;27;20523;-72
2023/03/16 09:47:40;;;;;;;3.63;2.00;;;46.60;5.70;;;;;;5134941;27;20479;-72
2023/03/16 09:50:13;;;;;;;3.20;1.87;;;47.00;5.00;;;;;;5135013;27;20486;-72
2023/03/16 09:52:50;;;;;;;3.33;1.33;;;47.20;4.80;;;;;;5134843;27;20480;-71
2023/03/16 09:55:26;;;;;;;2.70;1.60;;;47.30;3.80;;;;;;5134913;27;20437;-73
2023/03/16 09:57:54;;;;;;;3.97;1.80;;;47.30;3.80;;;;;;5134822;27;20429;-72
2023/03/16 10:00:25;;;;;;;3.30;1.73;;;47.40;4.40;;;;;;5133864;27;20469;-72
2023/03/16 10:03:23;;;;;;;2.70;1.47;;;47.70;4.70;;;;;;5134818;27;20469;-72
2023/03/16 10:05:59;;;;;;;2.67;1.60;;;47.80;4.00;;;;;;5134816;27;20524;-72
2023/03/16 10:08:31;;;;;;;2.63;1.30;;;47.50;3.80;;;;;;5134473;27;20429;-72
2023/03/16 10:11:13;;;;;;;2.93;1.63;;;47.40;3.90;;;;;;5134440;27;20465;-72
2023/03/16 10:13:43;;;;;;;2.90;1.40;;;47.20;3.60;;;;;;5134586;27;20444;-71
2023/03/16 10:16:17;;;;;;;4.20;1.33;;;47.00;3.80;;;;;;5134169;27;20532;-72
2023/03/16 10:18:48;;;;;;;2.27;1.20;;;46.80;4.40;;;;;;5134372;27;20914;-72
2023/03/16 10:21:17;;;;;;;2.10;1.23;;;47.40;4.10;;;;;;5134667;27;20912;-72
2023/03/16 10:23:45;;;;;;;3.13;1.53;;;47.70;4.40;;;;;;5134212;27;20913;-72
2023/03/16 10:26:17;;;;;;;2.67;1.60;;;47.90;4.20;;;;;;5133859;27;20541;-72
2023/03/16 10:28:45;;;;;;;3.90;1.40;;;48.20;3.60;;;;;;5134566;27;20430;-72
2023/03/16 10:31:13;;;;;;;3.00;1.30;;;48.00;4.40;;;;;;5134272;27;20443;-72
2023/03/16 10:33:40;;;;;;;3.73;2.07;;;48.00;4.10;;;;;;5134215;27;20486;-72
2023/03/16 10:36:18;;;;;;;3.17;1.80;;;48.10;3.80;;;;;;5134263;27;20520;-72
2023/03/16 10:38:48;;;;;;;3.00;1.43;;;48.10;4.20;;;;;;5134433;27;20478;-72
2023/03/16 10:41:27;;;;;;;2.80;1.40;;;48.10;3.60;;;;;;5134309;27;20902;-72
2023/03/16 10:43:56;;;;;;;2.90;1.20;;;48.10;3.70;;;;;;5134178;27;20497;-73
2023/03/16 10:46:24;;;;;;;2.20;1.07;;;48.10;3.90;;;;;;5133670;27;20795;-72
2023/03/16 10:48:58;;;;;;;2.47;1.40;;;48.00;4.10;;;;;;5133647;28;20425;-73
2023/03/16 10:51:29;;;;;;;2.10;1.00;;;48.30;4.00;;;;;;5133857;28;20532;-72
2023/03/16 10:54:04;;;;;;;2.10;1.13;;;47.90;3.10;;;;;;5134004;28;20437;-72
2023/03/16 10:56:35;;;;;;;2.20;1.40;;;46.80;3.10;;;;;;5136087;27;20906;-72
2023/03/16 10:59:14;;;;;;;2.70;1.47;;;46.60;4.20;;;;;;5138129;27;20444;-72
2023/03/16 11:01:45;;;;;;;3.03;1.77;;;47.00;4.00;;;;;;5138060;27;20976;-72
2023/03/16 11:04:15;;;;;;;2.50;1.30;;;47.20;4.10;;;;;;5138268;27;20432;-72
2023/03/16 11:06:53;;;;;;;2.83;1.07;;;47.20;3.90;;;;;;5138239;27;20488;-72
2023/03/16 11:09:23;;;;;;;3.30;1.60;;;46.50;3.00;;;;;;5137996;27;20448;-72
2023/03/16 11:11:51;;;;;;;2.50;1.80;;;45.50;3.80;;;;;;5137858;27;20437;-72
2023/03/16 11:14:22;;;;;;;2.80;1.50;;;45.50;3.90;;;;;;5137706;27;20520;-73
2023/03/16 11:16:56;;;;;;;2.83;1.67;;;45.50;3.70;;;;;;5137412;27;20443;-72
2023/03/16 11:19:26;;;;;;;3.37;1.73;;;45.40;3.50;;;;;;5137508;27;20468;-72
2023/03/16 11:21:59;;;;;;;3.20;1.67;;;45.60;3.80;;;;;;5137912;27;20425;-72
2023/03/16 11:24:34;;;;;;;2.57;1.73;;;46.00;4.80;;;;;;5137689;27;20523;-72
2023/03/16 11:27:04;;;;;;;3.47;2.17;;;46.00;5.10;;;;;;5137699;27;20819;-72
2023/03/16 11:29:44;;;;;;;3.10;1.50;;;46.00;4.50;;;;;;5137749;27;20433;-72
2023/03/16 11:32:14;;;;;;;2.70;1.80;;;46.30;4.40;;;;;;5137632;27;20788;-72
2023/03/16 11:34:42;;;;;;;2.90;1.93;;;46.40;4.20;;;;;;5137688;27;20437;-72
2023/03/16 11:37:32;;;;;;;2.60;1.80;;;46.00;4.00;;;;;;5137204;27;20448;-71
2023/03/16 11:40:13;;;;;;;3.53;2.23;;;46.00;4.30;;;;;;5137580;27;20882;-72
2023/03/16 11:42:48;;;;;;;3.00;1.30;;;46.10;4.30;;;;;;5133724;27;20433;-72
2023/03/16 11:45:22;;;;;;;3.80;1.77;;;45.80;4.00;;;;;;5136360;27;20441;-72
2023/03/16 11:48:11;;;;;;;3.73;1.60;;;45.10;4.20;;;;;;5136173;27;20512;-72
2023/03/16 11:50:50;;;;;;;4.70;1.70;;;44.50;4.60;;;;;;5136637;27;20461;-72
2023/03/16 11:53:29;;;;;;;3.40;1.90;;;44.20;5.00;;;;;;5135792;27;20429;-72
2023/03/16 11:56:07;;;;;;;2.20;1.40;;;44.10;5.00;;;;;;5136223;27;20849;-72
2023/03/16 11:59:02;;;;;;;2.80;1.90;;;44.00;4.60;;;;;;5135601;27;20942;-71
2023/03/16 12:01:39;;;;;;;2.77;1.80;;;44.10;5.20;;;;;;5135293;27;20496;-72
2023/03/16 12:04:27;;;;;;;2.27;1.70;;;44.00;5.20;;;;;;5136713;27;20489;-72
2023/03/16 12:07:03;;;;;;;2.60;1.80;;;43.70;4.90;;;;;;5136487;27;20465;-73
2023/03/16 12:09:53;;;;;;;2.97;1.57;;;43.70;5.30;;;;;;5135864;27;20441;-72
2023/03/16 12:12:38;;;;;;;3.50;1.67;;;43.90;5.10;;;;;;5136485;27;20441;-72
2023/03/16 12:15:23;;;;;;;3.37;1.50;;;43.90;4.80;;;;;;5135567;27;20513;-72
2023/03/16 12:17:52;;;;;;;2.60;1.43;;;43.70;4.80;;;;;;5136288;27;20838;-73
2023/03/16 12:20:23;;;;;;;4.60;2.27;;;43.30;5.00;;;;;;5136053;27;20425;-72
2023/03/16 12:22:54;;;;;;;2.83;2.00;;;43.20;5.50;;;;;;5135905;27;20449;-72
2023/03/16 12:25:26;;;;;;;2.80;1.60;;;43.00;5.20;;;;;;5135596;27;20442;-73
2023/03/16 12:27:57;;;;;;;4.13;1.63;;;42.40;4.90;;;;;;5136181;27;20476;-72
2023/03/16 12:30:35;;;;;;;3.40;1.87;;;41.90;5.60;;;;;;5135717;27;20444;-72
2023/03/16 12:33:08;;;;;;;3.33;2.03;;;41.70;5.70;;;;;;5135340;27;20518;-71
2023/03/16 12:35:43;;;;;;;3.10;1.80;;;40.90;4.90;;;;;;5135542;27;20855;-71
2023/03/16 12:38:28;;;;;;;3.70;2.00;;;39.50;6.00;;;;;;5126307;27;20438;-71
2023/03/16 12:41:08;;;;;;;3.77;1.60;;;38.30;6.70;;;;;;5133674;27;20789;-72
2023/03/16 12:43:47;;;;;;;3.07;2.33;;;37.50;7.00;;;;;;5132388;27;20437;-72
2023/03/16 12:46:21;;;;;;;2.80;1.90;;;37.10;8.00;;;;;;5135824;27;20438;-72
2023/03/16 12:48:52;;;;;;;2.97;1.70;;;36.70;8.30;;;;;;5131908;27;20564;-72
2023/03/16 12:51:19;;;;;;;5.80;1.90;;;36.10;8.10;;;;;;5125007;27;20428;-71
2023/03/16 12:53:53;;;;;;;2.80;1.83;;;35.30;8.20;;;;;;5135474;27;20429;-71
2023/03/16 12:56:29;;;;;;;3.47;2.20;;;34.30;8.60;;;;;;5135620;27;20475;-71
2023/03/16 12:58:58;;;;;;;2.77;1.87;;;33.20;9.70;;;;;;5135152;27;20433;-71
2023/03/16 13:01:28;;;;;;;3.70;1.90;;;32.60;10.70;;;;;;5122062;27;20879;-72
2023/03/16 13:04:02;;;;;;;2.93;1.60;;;32.60;10.30;;;;;;5114421;28;20470;-71
2023/03/16 13:06:34;;;;;;;3.60;1.63;;;33.20;10.50;;;;;;5114302;28;20461;-72
2023/03/16 13:09:03;;;;;;;3.20;2.23;;;33.80;9.70;;;;;;5114686;28;20482;-71
2023/03/16 13:11:50;;;;;;;3.27;2.37;;;34.60;9.50;;;;;;5114807;28;20495;-71